sensor_id;sensor_type;location;lat;lon;timestamp;pressure;altitude;pressure_sealevel;temperature;humidity
39265;BME280;42646;51.910;7.724;2023-07-09T00:01:51;101212.78;;;20.90;70.01
39265;BME280;42646;51.910;7.724;2023-07-09T00:04:45;101213.16;;;20.87;69.96
39265;BME280;42646;51.910;7.724;2023-07-09T00:07:19;101214.59;;;20.83;70.24
39265;BME280;42646;51.910;7.724;2023-07-09T00:09:49;101213.09;;;20.80;70.72
39265;BME280;42646;51.910;7.724;2023-07-09T00:12:17;101231.75;;;20.75;70.86
39265;BME280;42646;51.910;7.724;2023-07-09T00:14:46;101224.22;;;20.70;70.54
39265;BME280;42646;51.910;7.724;2023-07-09T00:17:19;101232.91;;;20.66;70.83
39265;BME280;42646;51.910;7.724;2023-07-09T00:19:48;101226.88;;;20.64;71.01
39265;BME280;42646;51.910;7.724;2023-07-09T00:22:19;101233.66;;;20.60;71.17
39265;BME280;42646;51.910;7.724;2023-07-09T00:24:49;101229.47;;;20.57;71.53
39265;BME280;42646;51.910;7.724;2023-07-09T00:27:19;101228.00;;;20.54;72.43
39265;BME280;42646;51.910;7.724;2023-07-09T00:29:49;101232.75;;;20.52;72.79
39265;BME280;42646;51.910;7.724;2023-07-09T00:32:19;101229.59;;;20.49;73.43
39265;BME280;42646;51.910;7.724;2023-07-09T00:34:48;101237.06;;;20.47;73.49
39265;BME280;42646;51.910;7.724;2023-07-09T00:37:20;101219.50;;;20.43;73.78
39265;BME280;42646;51.910;7.724;2023-07-09T00:39:48;101225.94;;;20.42;73.97
39265;BME280;42646;51.910;7.724;2023-07-09T00:42:17;101224.44;;;20.39;74.51
39265;BME280;42646;51.910;7.724;2023-07-09T00:44:49;101222.94;;;20.37;74.86
39265;BME280;42646;51.910;7.724;2023-07-09T00:47:27;101221.19;;;20.29;75.11
39265;BME280;42646;51.910;7.724;2023-07-09T00:50:11;101216.56;;;20.23;74.91
39265;BME280;42646;51.910;7.724;2023-07-09T00:52:50;101217.47;;;20.15;74.70
39265;BME280;42646;51.910;7.724;2023-07-09T00:55:23;101225.31;;;20.10;74.13
39265;BME280;42646;51.910;7.724;2023-07-09T00:57:54;101213.00;;;20.08;73.60
39265;BME280;42646;51.910;7.724;2023-07-09T01:00:28;101224.38;;;20.03;73.19
39265;BME280;42646;51.910;7.724;2023-07-09T01:03:10;101221.22;;;19.99;73.02
39265;BME280;42646;51.910;7.724;2023-07-09T01:05:40;101218.88;;;19.96;73.80
39265;BME280;42646;51.910;7.724;2023-07-09T01:08:10;101213.66;;;19.95;74.84
39265;BME280;42646;51.910;7.724;2023-07-09T01:10:39;101208.47;;;19.93;75.61
39265;BME280;42646;51.910;7.724;2023-07-09T01:13:07;101214.22;;;19.90;76.16
39265;BME280;42646;51.910;7.724;2023-07-09T01:15:36;101208.38;;;19.87;76.72
39265;BME280;42646;51.910;7.724;2023-07-09T01:18:05;101213.28;;;19.83;76.66
39265;BME280;42646;51.910;7.724;2023-07-09T01:20:35;101224.63;;;19.79;76.26
39265;BME280;42646;51.910;7.724;2023-07-09T01:23:31;101219.78;;;19.74;75.57
39265;BME280;42646;51.910;7.724;2023-07-09T01:25:59;101216.63;;;19.70;74.49
39265;BME280;42646;51.910;7.724;2023-07-09T01:28:27;101218.66;;;19.68;74.38
39265;BME280;42646;51.910;7.724;2023-07-09T01:30:56;101222.78;;;19.64;74.90
39265;BME280;42646;51.910;7.724;2023-07-09T01:33:48;101224.44;;;19.65;76.68
39265;BME280;42646;51.910;7.724;2023-07-09T01:36:19;101223.78;;;19.63;77.87
39265;BME280;42646;51.910;7.724;2023-07-09T01:38:51;101229.53;;;19.60;78.53
39265;BME280;42646;51.910;7.724;2023-07-09T01:41:20;101218.94;;;19.59;79.19
39265;BME280;42646;51.910;7.724;2023-07-09T01:43:49;101214.88;;;19.55;79.69
39265;BME280;42646;51.910;7.724;2023-07-09T01:46:18;101215.44;;;19.50;79.69
39265;BME280;42646;51.910;7.724;2023-07-09T01:49:13;101216.84;;;19.46;79.71
39265;BME280;42646;51.910;7.724;2023-07-09T01:51:41;101217.19;;;19.43;79.52
39265;BME280;42646;51.910;7.724;2023-07-09T01:54:10;101216.75;;;19.39;79.58
39265;BME280;42646;51.910;7.724;2023-07-09T01:56:43;101218.09;;;19.35;80.17
39265;BME280;42646;51.910;7.724;2023-07-09T01:59:14;101219.97;;;19.35;80.30
39265;BME280;42646;51.910;7.724;2023-07-09T02:01:42;101213.91;;;19.33;80.40
39265;BME280;42646;51.910;7.724;2023-07-09T02:04:10;101211.19;;;19.33;80.46
39265;BME280;42646;51.910;7.724;2023-07-09T02:06:38;101201.81;;;19.29;80.58
39265;BME280;42646;51.910;7.724;2023-07-09T02:09:06;101199.31;;;19.27;80.95
39265;BME280;42646;51.910;7.724;2023-07-09T02:11:35;101197.78;;;19.25;81.30
39265;BME280;42646;51.910;7.724;2023-07-09T02:14:08;101202.53;;;19.23;81.29
39265;BME280;42646;51.910;7.724;2023-07-09T02:16:40;101202.06;;;19.19;81.05
39265;BME280;42646;51.910;7.724;2023-07-09T02:19:11;101204.09;;;19.17;81.13
39265;BME280;42646;51.910;7.724;2023-07-09T02:21:40;101196.34;;;19.14;80.99
39265;BME280;42646;51.910;7.724;2023-07-09T02:24:08;101196.75;;;19.11;80.39
39265;BME280;42646;51.910;7.724;2023-07-09T02:26:37;101205.19;;;19.08;80.70
39265;BME280;42646;51.910;7.724;2023-07-09T02:29:06;101211.59;;;19.07;81.13
39265;BME280;42646;51.910;7.724;2023-07-09T02:31:35;101201.19;;;19.04;81.17
39265;BME280;42646;51.910;7.724;2023-07-09T02:34:03;101209.63;;;19.01;81.50
39265;BME280;42646;51.910;7.724;2023-07-09T02:36:31;101212.69;;;18.98;81.86
39265;BME280;42646;51.910;7.724;2023-07-09T02:39:00;101212.84;;;18.96;82.17
39265;BME280;42646;51.910;7.724;2023-07-09T02:41:30;101217.59;;;18.94;82.72
39265;BME280;42646;51.910;7.724;2023-07-09T02:43:59;101223.31;;;18.91;83.20
39265;BME280;42646;51.910;7.724;2023-07-09T02:46:26;101221.84;;;18.88;83.31
39265;BME280;42646;51.910;7.724;2023-07-09T02:48:54;101217.47;;;18.87;83.86
39265;BME280;42646;51.910;7.724;2023-07-09T02:51:23;101227.75;;;18.84;84.15
39265;BME280;42646;51.910;7.724;2023-07-09T02:53:53;101229.16;;;18.80;84.37
39265;BME280;42646;51.910;7.724;2023-07-09T02:56:25;101233.22;;;18.76;84.35
39265;BME280;42646;51.910;7.724;2023-07-09T02:58:53;101232.72;;;18.72;84.09
39265;BME280;42646;51.910;7.724;2023-07-09T03:01:22;101237.47;;;18.70;83.85
39265;BME280;42646;51.910;7.724;2023-07-09T03:03:51;101243.03;;;18.68;84.36
39265;BME280;42646;51.910;7.724;2023-07-09T03:06:23;101242.19;;;18.68;84.92
39265;BME280;42646;51.910;7.724;2023-07-09T03:08:52;101241.66;;;18.64;84.73
39265;BME280;42646;51.910;7.724;2023-07-09T03:11:20;101244.53;;;18.63;85.18
39265;BME280;42646;51.910;7.724;2023-07-09T03:13:48;101245.72;;;18.60;84.97
39265;BME280;42646;51.910;7.724;2023-07-09T03:16:16;101257.53;;;18.59;84.59
39265;BME280;42646;51.910;7.724;2023-07-09T03:18:47;101251.28;;;18.59;84.59
39265;BME280;42646;51.910;7.724;2023-07-09T03:21:15;101247.09;;;18.56;84.73
39265;BME280;42646;51.910;7.724;2023-07-09T03:23:43;101246.25;;;18.56;85.05
39265;BME280;42646;51.910;7.724;2023-07-09T03:26:11;101244.41;;;18.56;85.41
39265;BME280;42646;51.910;7.724;2023-07-09T03:28:39;101245.59;;;18.54;85.48
39265;BME280;42646;51.910;7.724;2023-07-09T03:31:08;101247.63;;;18.52;85.67
39265;BME280;42646;51.910;7.724;2023-07-09T03:33:35;101248.81;;;18.49;85.70
39265;BME280;42646;51.910;7.724;2023-07-09T03:36:05;101250.00;;;18.47;85.35
39265;BME280;42646;51.910;7.724;2023-07-09T03:38:34;101243.97;;;18.45;85.30
39265;BME280;42646;51.910;7.724;2023-07-09T03:41:02;101242.44;;;18.42;85.15
39265;BME280;42646;51.910;7.724;2023-07-09T03:43:34;101244.31;;;18.41;85.32
39265;BME280;42646;51.910;7.724;2023-07-09T03:46:02;101243.47;;;18.41;85.42
39265;BME280;42646;51.910;7.724;2023-07-09T03:48:31;101241.78;;;18.40;85.72
39265;BME280;42646;51.910;7.724;2023-07-09T03:51:00;101244.47;;;18.40;85.82
39265;BME280;42646;51.910;7.724;2023-07-09T03:53:29;101235.56;;;18.39;86.58
39265;BME280;42646;51.910;7.724;2023-07-09T03:55:57;101243.66;;;18.39;86.92
39265;BME280;42646;51.910;7.724;2023-07-09T03:58:27;101246.50;;;18.38;86.85
39265;BME280;42646;51.910;7.724;2023-07-09T04:00:54;101248.19;;;18.39;86.93
39265;BME280;42646;51.910;7.724;2023-07-09T04:03:24;101246.50;;;18.38;87.59
39265;BME280;42646;51.910;7.724;2023-07-09T04:05:52;101244.66;;;18.38;87.70
39265;BME280;42646;51.910;7.724;2023-07-09T04:08:20;101243.97;;;18.36;87.58
39265;BME280;42646;51.910;7.724;2023-07-09T04:10:49;101236.72;;;18.37;88.05
39265;BME280;42646;51.910;7.724;2023-07-09T04:13:18;101243.78;;;18.38;88.00
39265;BME280;42646;51.910;7.724;2023-07-09T04:15:46;101242.13;;;18.37;87.87
39265;BME280;42646;51.910;7.724;2023-07-09T04:18:14;101243.16;;;18.36;88.01
39265;BME280;42646;51.910;7.724;2023-07-09T04:20:43;101241.47;;;18.35;87.84
39265;BME280;42646;51.910;7.724;2023-07-09T04:23:15;101246.69;;;18.36;87.99
39265;BME280;42646;51.910;7.724;2023-07-09T04:25:43;101252.75;;;18.38;88.73
39265;BME280;42646;51.910;7.724;2023-07-09T04:28:14;101253.59;;;18.39;90.03
39265;BME280;42646;51.910;7.724;2023-07-09T04:30:46;101250.88;;;18.39;90.72
39265;BME280;42646;51.910;7.724;2023-07-09T04:33:16;101249.03;;;18.39;91.15
39265;BME280;42646;51.910;7.724;2023-07-09T04:35:46;101250.72;;;18.40;91.54
39265;BME280;42646;51.910;7.724;2023-07-09T04:38:14;101250.34;;;18.43;92.03
39265;BME280;42646;51.910;7.724;2023-07-09T04:40:42;101255.56;;;18.45;91.84
39265;BME280;42646;51.910;7.724;2023-07-09T04:43:10;101254.56;;;18.46;91.46
39265;BME280;42646;51.910;7.724;2023-07-09T04:45:45;101257.91;;;18.48;91.29
39265;BME280;42646;51.910;7.724;2023-07-09T04:48:13;101256.56;;;18.52;92.01
39265;BME280;42646;51.910;7.724;2023-07-09T04:50:41;101252.31;;;18.58;92.77
39265;BME280;42646;51.910;7.724;2023-07-09T04:53:11;101260.88;;;18.61;93.19
39265;BME280;42646;51.910;7.724;2023-07-09T04:55:39;101260.34;;;18.66;93.75
39265;BME280;42646;51.910;7.724;2023-07-09T04:58:06;101264.41;;;18.70;94.02
39265;BME280;42646;51.910;7.724;2023-07-09T05:00:36;101261.19;;;18.75;94.59
39265;BME280;42646;51.910;7.724;2023-07-09T05:03:06;101262.50;;;18.79;94.38
39265;BME280;42646;51.910;7.724;2023-07-09T05:05:33;101262.16;;;18.82;94.09
39265;BME280;42646;51.910;7.724;2023-07-09T05:08:03;101256.25;;;18.86;93.41
39265;BME280;42646;51.910;7.724;2023-07-09T05:10:31;101256.56;;;18.91;92.96
39265;BME280;42646;51.910;7.724;2023-07-09T05:12:59;101254.81;;;18.99;93.08
39265;BME280;42646;51.910;7.724;2023-07-09T05:15:27;101256.59;;;19.06;93.69
39265;BME280;42646;51.910;7.724;2023-07-09T05:17:54;101254.69;;;19.15;94.39
39265;BME280;42646;51.910;7.724;2023-07-09T05:20:24;101261.88;;;19.23;94.59
39265;BME280;42646;51.910;7.724;2023-07-09T05:22:52;101257.25;;;19.31;94.56
39265;BME280;42646;51.910;7.724;2023-07-09T05:25:19;101260.91;;;19.38;94.21
39265;BME280;42646;51.910;7.724;2023-07-09T05:27:47;101255.47;;;19.46;93.52
39265;BME280;42646;51.910;7.724;2023-07-09T05:30:15;101260.78;;;19.55;93.07
39265;BME280;42646;51.910;7.724;2023-07-09T05:32:43;101250.13;;;19.61;92.70
39265;BME280;42646;51.910;7.724;2023-07-09T05:35:41;101254.88;;;19.74;92.08
39265;BME280;42646;51.910;7.724;2023-07-09T05:38:10;101254.81;;;19.82;91.47
39265;BME280;42646;51.910;7.724;2023-07-09T05:40:38;101260.97;;;19.91;91.00
39265;BME280;42646;51.910;7.724;2023-07-09T05:43:06;101252.59;;;20.00;90.02
39265;BME280;42646;51.910;7.724;2023-07-09T05:45:35;101256.03;;;20.09;89.17
39265;BME280;42646;51.910;7.724;2023-07-09T05:48:04;101252.22;;;20.18;88.57
39265;BME280;42646;51.910;7.724;2023-07-09T05:50:35;101251.09;;;20.27;88.45
39265;BME280;42646;51.910;7.724;2023-07-09T05:53:04;101261.63;;;20.37;88.41
39265;BME280;42646;51.910;7.724;2023-07-09T05:55:32;101263.25;;;20.46;87.82
39265;BME280;42646;51.910;7.724;2023-07-09T05:58:00;101256.69;;;20.56;87.52
39265;BME280;42646;51.910;7.724;2023-07-09T06:00:28;101265.34;;;20.66;88.02
39265;BME280;42646;51.910;7.724;2023-07-09T06:02:56;101263.19;;;20.76;87.79
39265;BME280;42646;51.910;7.724;2023-07-09T06:05:25;101267.25;;;20.87;87.41
39265;BME280;42646;51.910;7.724;2023-07-09T06:08:21;101272.81;;;21.00;87.00
39265;BME280;42646;51.910;7.724;2023-07-09T06:10:53;101269.63;;;21.11;86.33
39265;BME280;42646;51.910;7.724;2023-07-09T06:13:23;101269.28;;;21.21;86.02
39265;BME280;42646;51.910;7.724;2023-07-09T06:15:54;101268.16;;;21.30;85.47
39265;BME280;42646;51.910;7.724;2023-07-09T06:18:27;101261.19;;;21.42;85.22
39265;BME280;42646;51.910;7.724;2023-07-09T06:20:57;101269.84;;;21.52;85.12
39265;BME280;42646;51.910;7.724;2023-07-09T06:23:28;101262.44;;;21.68;84.95
39265;BME280;42646;51.910;7.724;2023-07-09T06:25:56;101265.06;;;21.82;84.60
39265;BME280;42646;51.910;7.724;2023-07-09T06:28:26;101274.13;;;21.96;84.28
39265;BME280;42646;51.910;7.724;2023-07-09T06:30:56;101261.50;;;22.10;83.63
39265;BME280;42646;51.910;7.724;2023-07-09T06:33:25;101261.16;;;22.20;83.05
39265;BME280;42646;51.910;7.724;2023-07-09T06:35:58;101266.66;;;22.33;82.66
39265;BME280;42646;51.910;7.724;2023-07-09T06:38:27;101271.28;;;22.46;82.12
39265;BME280;42646;51.910;7.724;2023-07-09T06:40:57;101268.63;;;22.59;81.92
39265;BME280;42646;51.910;7.724;2023-07-09T06:43:26;101268.50;;;22.74;80.92
39265;BME280;42646;51.910;7.724;2023-07-09T06:45:55;101261.09;;;22.89;81.17
39265;BME280;42646;51.910;7.724;2023-07-09T06:48:26;101264.44;;;23.04;81.05
39265;BME280;42646;51.910;7.724;2023-07-09T06:50:56;101263.44;;;23.18;79.80
39265;BME280;42646;51.910;7.724;2023-07-09T06:53:25;101263.84;;;23.35;79.61
39265;BME280;42646;51.910;7.724;2023-07-09T06:55:55;101262.19;;;23.48;78.66
39265;BME280;42646;51.910;7.724;2023-07-09T06:58:27;101257.63;;;23.61;77.91
39265;BME280;42646;51.910;7.724;2023-07-09T07:01:00;101257.84;;;23.80;76.40
39265;BME280;42646;51.910;7.724;2023-07-09T07:03:32;101263.84;;;23.95;76.81
39265;BME280;42646;51.910;7.724;2023-07-09T07:06:03;101256.31;;;24.10;76.73
39265;BME280;42646;51.910;7.724;2023-07-09T07:08:33;101271.97;;;24.28;76.14
39265;BME280;42646;51.910;7.724;2023-07-09T07:11:03;101268.84;;;24.38;75.21
39265;BME280;42646;51.910;7.724;2023-07-09T07:13:35;101274.22;;;24.51;73.94
39265;BME280;42646;51.910;7.724;2023-07-09T07:16:05;101278.75;;;24.64;72.46
39265;BME280;42646;51.910;7.724;2023-07-09T07:18:34;101273.47;;;24.75;73.19
39265;BME280;42646;51.910;7.724;2023-07-09T07:21:02;101278.84;;;24.89;72.58
39265;BME280;42646;51.910;7.724;2023-07-09T07:23:31;101281.50;;;25.02;72.75
39265;BME280;42646;51.910;7.724;2023-07-09T07:25:59;101269.28;;;25.18;71.88
39265;BME280;42646;51.910;7.724;2023-07-09T07:28:30;101270.66;;;25.34;71.37
39265;BME280;42646;51.910;7.724;2023-07-09T07:30:59;101265.94;;;25.47;71.04
39265;BME280;42646;51.910;7.724;2023-07-09T07:33:27;101274.16;;;25.66;70.81
39265;BME280;42646;51.910;7.724;2023-07-09T07:36:20;101269.41;;;25.86;69.81
39265;BME280;42646;51.910;7.724;2023-07-09T07:38:57;101260.84;;;26.01;69.48
39265;BME280;42646;51.910;7.724;2023-07-09T07:41:27;101267.38;;;26.18;68.82
39265;BME280;42646;51.910;7.724;2023-07-09T07:43:56;101268.88;;;26.32;68.59
39265;BME280;42646;51.910;7.724;2023-07-09T07:46:26;101278.31;;;26.55;68.36
39265;BME280;42646;51.910;7.724;2023-07-09T07:48:55;101275.28;;;26.63;66.78
39265;BME280;42646;51.910;7.724;2023-07-09T07:51:24;101274.97;;;26.71;65.75
39265;BME280;42646;51.910;7.724;2023-07-09T07:53:53;101265.63;;;26.79;64.99
39265;BME280;42646;51.910;7.724;2023-07-09T07:56:21;101276.00;;;26.88;65.12
39265;BME280;42646;51.910;7.724;2023-07-09T07:58:49;101271.66;;;26.99;64.09
39265;BME280;42646;51.910;7.724;2023-07-09T08:01:18;101265.88;;;27.07;64.10
39265;BME280;42646;51.910;7.724;2023-07-09T08:03:47;101269.22;;;27.21;64.10
39265;BME280;42646;51.910;7.724;2023-07-09T08:06:15;101249.19;;;27.39;62.18
39265;BME280;42646;51.910;7.724;2023-07-09T08:08:43;101264.66;;;27.57;60.98
39265;BME280;42646;51.910;7.724;2023-07-09T08:11:15;101258.28;;;27.75;60.31
39265;BME280;42646;51.910;7.724;2023-07-09T08:13:43;101264.13;;;27.90;60.25
39265;BME280;42646;51.910;7.724;2023-07-09T08:16:12;101260.81;;;28.00;59.89
39265;BME280;42646;51.910;7.724;2023-07-09T08:18:44;101258.66;;;28.13;60.00
39265;BME280;42646;51.910;7.724;2023-07-09T08:21:36;101259.09;;;28.22;60.02
39265;BME280;42646;51.910;7.724;2023-07-09T08:24:06;101260.03;;;28.28;59.17
39265;BME280;42646;51.910;7.724;2023-07-09T08:26:34;101256.16;;;28.35;57.72
39265;BME280;42646;51.910;7.724;2023-07-09T08:29:04;101258.75;;;28.42;58.27
39265;BME280;42646;51.910;7.724;2023-07-09T08:31:32;101260.38;;;28.55;58.51
39265;BME280;42646;51.910;7.724;2023-07-09T08:34:06;101251.88;;;28.68;59.03
39265;BME280;42646;51.910;7.724;2023-07-09T08:36:34;101249.19;;;28.85;57.73
39265;BME280;42646;51.910;7.724;2023-07-09T08:39:03;101252.28;;;28.88;56.92
39265;BME280;42646;51.910;7.724;2023-07-09T08:41:38;101257.72;;;29.00;55.33
39265;BME280;42646;51.910;7.724;2023-07-09T08:44:22;101251.84;;;29.08;55.78
39265;BME280;42646;51.910;7.724;2023-07-09T08:47:00;101259.91;;;29.15;55.55
39265;BME280;42646;51.910;7.724;2023-07-09T08:49:37;101253.41;;;29.21;55.29
39265;BME280;42646;51.910;7.724;2023-07-09T08:52:12;101256.81;;;29.28;55.40
39265;BME280;42646;51.910;7.724;2023-07-09T08:54:45;101254.84;;;29.40;54.63
39265;BME280;42646;51.910;7.724;2023-07-09T08:57:20;101245.25;;;29.55;52.92
39265;BME280;42646;51.910;7.724;2023-07-09T08:59:49;101247.06;;;29.66;54.38
39265;BME280;42646;51.910;7.724;2023-07-09T09:02:29;101240.72;;;29.82;53.65
39265;BME280;42646;51.910;7.724;2023-07-09T09:05:02;101245.03;;;29.95;54.24
39265;BME280;42646;51.910;7.724;2023-07-09T09:07:39;101243.41;;;30.16;51.84
39265;BME280;42646;51.910;7.724;2023-07-09T09:10:13;101244.88;;;30.23;50.53
39265;BME280;42646;51.910;7.724;2023-07-09T09:12:52;101245.53;;;30.30;51.23
39265;BME280;42646;51.910;7.724;2023-07-09T09:15:24;101242.06;;;30.40;52.15
39265;BME280;42646;51.910;7.724;2023-07-09T09:17:57;101246.88;;;30.50;52.24
39265;BME280;42646;51.910;7.724;2023-07-09T09:20:27;101235.75;;;30.62;50.18
39265;BME280;42646;51.910;7.724;2023-07-09T09:23:10;101230.13;;;30.73;51.25
39265;BME280;42646;51.910;7.724;2023-07-09T09:25:41;101233.81;;;30.84;51.46
39265;BME280;42646;51.910;7.724;2023-07-09T09:28:13;101230.66;;;30.97;49.12
39265;BME280;42646;51.910;7.724;2023-07-09T09:30:41;101236.75;;;31.04;48.43
39265;BME280;42646;51.910;7.724;2023-07-09T09:33:10;101240.66;;;31.08;48.81
39265;BME280;42646;51.910;7.724;2023-07-09T09:35:42;101234.13;;;31.15;47.52
39265;BME280;42646;51.910;7.724;2023-07-09T09:38:36;101237.81;;;31.25;48.94
39265;BME280;42646;51.910;7.724;2023-07-09T09:41:04;101237.94;;;31.41;48.81
39265;BME280;42646;51.910;7.724;2023-07-09T09:43:32;101232.50;;;31.51;48.19
39265;BME280;42646;51.910;7.724;2023-07-09T09:46:06;101231.19;;;31.58;47.17
39265;BME280;42646;51.910;7.724;2023-07-09T09:49:02;101231.78;;;31.65;46.40
39265;BME280;42646;51.910;7.724;2023-07-09T09:51:33;101232.38;;;31.68;46.52
39265;BME280;42646;51.910;7.724;2023-07-09T09:54:01;101229.09;;;31.76;47.02
39265;BME280;42646;51.910;7.724;2023-07-09T09:56:33;101228.91;;;31.82;47.26
39265;BME280;42646;51.910;7.724;2023-07-09T09:59:05;101227.59;;;31.95;47.36
39265;BME280;42646;51.910;7.724;2023-07-09T10:01:35;101227.94;;;32.09;46.49
39265;BME280;42646;51.910;7.724;2023-07-09T10:04:04;101227.69;;;32.10;45.41
39265;BME280;42646;51.910;7.724;2023-07-09T10:06:36;101236.25;;;32.14;45.63
39265;BME280;42646;51.910;7.724;2023-07-09T10:09:15;101226.63;;;32.22;45.90
39265;BME280;42646;51.910;7.724;2023-07-09T10:11:48;101239.34;;;32.33;44.81
39265;BME280;42646;51.910;7.724;2023-07-09T10:14:29;101230.03;;;32.39;44.70
39265;BME280;42646;51.910;7.724;2023-07-09T10:17:02;101225.34;;;32.39;43.66
39265;BME280;42646;51.910;7.724;2023-07-09T10:19:38;101224.22;;;32.35;43.78
39265;BME280;42646;51.910;7.724;2023-07-09T10:22:14;101226.72;;;32.42;44.79
39265;BME280;42646;51.910;7.724;2023-07-09T10:24:54;101233.66;;;32.55;44.84
39265;BME280;42646;51.910;7.724;2023-07-09T10:27:30;101234.50;;;32.65;44.40
39265;BME280;42646;51.910;7.724;2023-07-09T10:30:29;101228.47;;;32.79;43.91
39265;BME280;42646;51.910;7.724;2023-07-09T10:33:08;101226.00;;;32.77;43.17
39265;BME280;42646;51.910;7.724;2023-07-09T10:35:38;101229.59;;;32.83;42.88
39265;BME280;42646;51.910;7.724;2023-07-09T10:38:30;101221.09;;;32.94;42.96
39265;BME280;42646;51.910;7.724;2023-07-09T10:41:26;101215.31;;;33.06;43.12
39265;BME280;42646;51.910;7.724;2023-07-09T10:44:00;101224.72;;;33.15;41.78
39265;BME280;42646;51.910;7.724;2023-07-09T10:46:34;101227.44;;;33.20;41.65
39265;BME280;42646;51.910;7.724;2023-07-09T10:49:10;101218.06;;;33.32;42.07
39265;BME280;42646;51.910;7.724;2023-07-09T10:51:41;101220.53;;;33.38;42.03
39265;BME280;42646;51.910;7.724;2023-07-09T10:54:16;101218.91;;;33.42;41.11
39265;BME280;42646;51.910;7.724;2023-07-09T10:56:49;101216.72;;;33.44;41.02
39265;BME280;42646;51.910;7.724;2023-07-09T10:59:21;101214.50;;;33.46;40.60
39265;BME280;42646;51.910;7.724;2023-07-09T11:01:54;101202.06;;;33.49;40.67
39265;BME280;42646;51.910;7.724;2023-07-09T11:04:29;101197.66;;;33.58;39.46
39265;BME280;42646;51.910;7.724;2023-07-09T11:07:01;101197.94;;;33.57;39.39
39265;BME280;42646;51.910;7.724;2023-07-09T11:09:36;101197.38;;;33.65;38.62
39265;BME280;42646;51.910;7.724;2023-07-09T11:12:10;101202.88;;;33.75;38.79
39265;BME280;42646;51.910;7.724;2023-07-09T11:14:42;101197.06;;;33.82;38.70
39265;BME280;42646;51.910;7.724;2023-07-09T11:17:15;101199.22;;;33.90;38.97
39265;BME280;42646;51.910;7.724;2023-07-09T11:19:47;101199.53;;;33.98;38.75
39265;BME280;42646;51.910;7.724;2023-07-09T11:22:20;101201.41;;;34.08;39.03
39265;BME280;42646;51.910;7.724;2023-07-09T11:24:51;101198.06;;;34.16;40.03
39265;BME280;42646;51.910;7.724;2023-07-09T11:27:23;101205.19;;;34.27;39.95
39265;BME280;42646;51.910;7.724;2023-07-09T11:29:59;101202.94;;;34.35;38.45
39265;BME280;42646;51.910;7.724;2023-07-09T11:32:28;101202.06;;;34.39;37.29
39265;BME280;42646;51.910;7.724;2023-07-09T11:35:06;101199.03;;;34.41;38.35
39265;BME280;42646;51.910;7.724;2023-07-09T11:37:44;101194.34;;;34.46;37.11
39265;BME280;42646;51.910;7.724;2023-07-09T11:40:15;101186.31;;;34.45;36.86
39265;BME280;42646;51.910;7.724;2023-07-09T11:42:51;101179.41;;;34.47;37.36
39265;BME280;42646;51.910;7.724;2023-07-09T11:45:23;101174.97;;;34.51;37.46
39265;BME280;42646;51.910;7.724;2023-07-09T11:47:56;101174.09;;;34.56;37.18
39265;BME280;42646;51.910;7.724;2023-07-09T11:50:35;101178.81;;;34.56;37.54
39265;BME280;42646;51.910;7.724;2023-07-09T11:53:05;101167.47;;;34.57;36.71
39265;BME280;42646;51.910;7.724;2023-07-09T11:55:45;101166.59;;;34.62;37.01
39265;BME280;42646;51.910;7.724;2023-07-09T11:58:15;101162.47;;;34.64;37.04
39265;BME280;42646;51.910;7.724;2023-07-09T12:00:47;101163.56;;;34.63;36.69
39265;BME280;42646;51.910;7.724;2023-07-09T12:03:45;101161.31;;;34.70;36.95
39265;BME280;42646;51.910;7.724;2023-07-09T12:06:18;101161.31;;;34.70;37.05
39265;BME280;42646;51.910;7.724;2023-07-09T12:08:48;101159.84;;;34.78;37.49
39265;BME280;42646;51.910;7.724;2023-07-09T12:11:21;101151.53;;;34.83;37.20
39265;BME280;42646;51.910;7.724;2023-07-09T12:13:51;101150.38;;;34.89;36.49
39265;BME280;42646;51.910;7.724;2023-07-09T12:16:24;101143.72;;;34.95;35.89
39265;BME280;42646;51.910;7.724;2023-07-09T12:18:52;101139.53;;;34.98;36.28
39265;BME280;42646;51.910;7.724;2023-07-09T12:21:22;101140.56;;;35.07;36.44
39265;BME280;42646;51.910;7.724;2023-07-09T12:23:50;101136.94;;;35.12;35.99
39265;BME280;42646;51.910;7.724;2023-07-09T12:26:20;101129.94;;;35.19;35.60
39265;BME280;42646;51.910;7.724;2023-07-09T12:28:51;101124.88;;;35.26;35.24
39265;BME280;42646;51.910;7.724;2023-07-09T12:31:25;101114.94;;;35.25;35.20
39265;BME280;42646;51.910;7.724;2023-07-09T12:33:55;101113.50;;;35.28;33.93
39265;BME280;42646;51.910;7.724;2023-07-09T12:36:25;101110.22;;;35.26;35.03
39265;BME280;42646;51.910;7.724;2023-07-09T12:38:56;101107.25;;;35.22;35.02
39265;BME280;42646;51.910;7.724;2023-07-09T12:41:28;101109.41;;;35.25;34.65
39265;BME280;42646;51.910;7.724;2023-07-09T12:43:57;101108.28;;;35.26;34.37
39265;BME280;42646;51.910;7.724;2023-07-09T12:46:28;101108.47;;;35.35;35.54
39265;BME280;42646;51.910;7.724;2023-07-09T12:48:56;101116.41;;;35.47;35.37
39265;BME280;42646;51.910;7.724;2023-07-09T12:51:29;101114.72;;;35.46;34.55
39265;BME280;42646;51.910;7.724;2023-07-09T12:54:03;101108.38;;;35.45;34.64
39265;BME280;42646;51.910;7.724;2023-07-09T12:56:34;101111.69;;;35.47;34.88
39265;BME280;42646;51.910;7.724;2023-07-09T12:59:18;101109.38;;;35.54;34.50
39265;BME280;42646;51.910;7.724;2023-07-09T13:01:54;101112.41;;;35.58;34.06
39265;BME280;42646;51.910;7.724;2023-07-09T13:04:28;101100.25;;;35.54;34.21
39265;BME280;42646;51.910;7.724;2023-07-09T13:06:58;101100.63;;;35.47;33.63
39265;BME280;42646;51.910;7.724;2023-07-09T13:09:28;101095.31;;;35.51;33.86
39265;BME280;42646;51.910;7.724;2023-07-09T13:11:57;101094.66;;;35.59;34.17
39265;BME280;42646;51.910;7.724;2023-07-09T13:14:29;101086.16;;;35.74;33.88